Priwall — V2OX8 — position and weather

sailwx.info

Track history (hours):
 
Tides and Currents Weather Stations Pressure Air Temp Water Temp Dewpoint Dewpoint Depression Visibility Wind Speed Wind Dir Waves Ship Positions

Priwall

Last reported at 2015-Jan-15 15:17 UTC. Time now 2015-Jan-27 12:27 UTC.
Position N 39°50' E 025°52'.
Warning: this ship's position is 11 days out of date.

Length 88 m; draft 5.4 m.

Type: Cargo ship. MMSI: 304739000.

Date/timePositionNaut miles runAvg speedWind from/ knotsBaromVisibWave heightAir tempDewpointWater temp
2015-Jan-15 15:17N 39°50' E 025°52'  
2015-Jan-11 17:29N 38°03' E 024°47'16 7.3
2015-Jan-11 15:20N 37°52' E 024°32'8 6.9
2015-Jan-11 14:15N 37°47' E 024°25'5 6.8
2015-Jan-11 13:33N 37°44' E 024°21'7 6.6
2015-Jan-11 12:29N 37°39' E 024°14'6 6.4
2015-Jan-11 11:30N 37°34' E 024°10'13 6.4
2015-Jan-11 09:33N 37°24' E 024°00'7 7.0
2015-Jan-11 08:33N 37°18' E 023°56'8 7.3
2015-Jan-11 07:31N 37°12' E 023°50'6 6.3
2015-Jan-11 06:33N 37°06' E 023°46'7 7.1
2015-Jan-11 05:32N 36°60' E 023°42'7 7.2
2015-Jan-11 04:33N 36°54' E 023°38'7 6.8
2015-Jan-11 03:32N 36°48' E 023°33'7 7.3
2015-Jan-11 02:33N 36°42' E 023°28'7 7.0
2015-Jan-11 01:29N 36°36' E 023°23'6 6.4
2015-Jan-11 00:33N 36°31' E 023°19'  
Track history (hours):
 
Tides and Currents Weather Stations Pressure Air Temp Water Temp Dewpoint Dewpoint Depression Visibility Wind Speed Wind Dir Waves Ship Positions

Priwall

Last reported at 2015-Jan-15 15:17 UTC. Time now 2015-Jan-27 12:27 UTC.
Position N 39°50' E 025°52'.
Warning: this ship's position is 11 days out of date.

Length 88 m; draft 5.4 m.

Type: Cargo ship. MMSI: 304739000.

Date/timePositionNaut miles runAvg speedWind from/ knotsBaromVisibWave heightAir tempDewpointWater temp
2015-Jan-15 15:17N 39°50' E 025°52'  
2015-Jan-11 17:29N 38°03' E 024°47'16 7.3
2015-Jan-11 15:20N 37°52' E 024°32'8 6.9
2015-Jan-11 14:15N 37°47' E 024°25'5 6.8
2015-Jan-11 13:33N 37°44' E 024°21'7 6.6
2015-Jan-11 12:29N 37°39' E 024°14'6 6.4
2015-Jan-11 11:30N 37°34' E 024°10'13 6.4
2015-Jan-11 09:33N 37°24' E 024°00'7 7.0
2015-Jan-11 08:33N 37°18' E 023°56'8 7.3
2015-Jan-11 07:31N 37°12' E 023°50'6 6.3
2015-Jan-11 06:33N 37°06' E 023°46'7 7.1
2015-Jan-11 05:32N 36°60' E 023°42'7 7.2
2015-Jan-11 04:33N 36°54' E 023°38'7 6.8
2015-Jan-11 03:32N 36°48' E 023°33'7 7.3
2015-Jan-11 02:33N 36°42' E 023°28'7 7.0
2015-Jan-11 01:29N 36°36' E 023°23'6 6.4
2015-Jan-11 00:33N 36°31' E 023°19'  

Dump ship's entire track history